Time;durP1;ratioP1;P1;durP2;ratioP2;P2;SDS_P1;SDS_P2;PMS_P1;PMS_P2;Temp;Humidity;BMP_temperature;BMP_pressure;BME280_temperature;BME280_humidity;BME280_pressure;Samples;Min_cycle;Max_cycle;Signal;HPM_P1;HPM_P2
2023/09/02 06:55:37;;;;;;;7.93;2.30;;;;;;;17.38;84.03;96910.00;2089544;28;20898;-70
2023/09/02 06:57:46;;;;;;;5.88;2.78;;;;;;;17.78;83.66;96911.69;2084752;28;20590;-70
2023/09/02 06:58:49;;;;;;;10.38;2.72;;;;;;;17.94;82.94;96908.81;2080915;28;20810;-70
2023/09/02 06:59:51;;;;;;;3.90;2.58;;;;;;;18.02;83.17;96909.13;2081808;28;20193;-70
2023/09/02 07:00:52;;;;;;;5.60;2.58;;;;;;;18.28;82.71;96909.94;2082733;28;20205;-70
2023/09/02 07:01:53;;;;;;;5.50;2.58;;;;;;;18.56;81.86;96912.38;2083925;28;20243;-70
2023/09/02 07:02:55;;;;;;;7.10;1.85;;;;;;;18.96;80.77;96912.13;2080461;28;20765;-70
2023/09/02 07:03:57;;;;;;;3.53;1.80;;;;;;;19.26;79.99;96913.41;2084778;28;20271;-70
2023/09/02 07:04:58;;;;;;;7.95;3.03;;;;;;;19.40;78.76;96904.41;2083488;28;20189;-70
2023/09/02 07:06:05;;;;;;;5.22;2.55;;;;;;;19.46;78.57;96916.34;2078011;28;20193;-70
2023/09/02 07:07:06;;;;;;;10.45;2.13;;;;;;;19.57;78.46;96911.91;2079176;28;20648;-70
2023/09/02 07:08:08;;;;;;;6.43;1.98;;;;;;;19.86;78.19;96919.44;2081675;28;20356;-70
2023/09/02 07:09:10;;;;;;;8.38;1.65;;;;;;;19.77;78.57;96914.84;2080908;28;20279;-70
2023/09/02 07:10:11;;;;;;;3.28;1.70;;;;;;;20.06;76.99;96919.66;2082380;28;20249;-70
2023/09/02 07:11:13;;;;;;;5.43;1.60;;;;;;;20.23;77.07;96921.00;2081487;28;20257;-70
2023/09/02 07:12:16;;;;;;;8.23;1.50;;;;;;;20.43;77.75;96915.91;2078005;28;20201;-70
2023/09/02 07:13:17;;;;;;;4.22;1.52;;;;;;;20.45;77.05;96920.09;2081032;28;20581;-70
2023/09/02 07:14:19;;;;;;;4.65;2.00;;;;;;;20.69;76.25;96916.44;2078021;28;20675;-70
2023/09/02 07:15:20;;;;;;;11.95;2.30;;;;;;;21.10;75.94;96924.66;2078854;28;20201;-72
2023/09/02 07:16:21;;;;;;;3.13;1.58;;;;;;;21.38;74.72;96917.84;2077827;28;20322;-70
2023/09/02 07:17:26;;;;;;;3.65;1.48;;;;;;;21.47;73.96;96910.94;2079931;28;20217;-69
2023/09/02 07:18:28;;;;;;;4.00;1.83;;;;;;;21.78;73.26;96922.47;2080635;28;20359;-69
2023/09/02 07:19:29;;;;;;;5.22;1.75;;;;;;;21.45;73.42;96912.91;2080689;28;20556;-69
2023/09/02 07:20:35;;;;;;;5.43;1.98;;;;;;;21.54;73.84;96923.56;2082239;28;20193;-69
2023/09/02 07:21:36;;;;;;;3.60;2.08;;;;;;;21.69;73.41;96925.94;2081337;28;20511;-69
2023/09/02 07:22:38;;;;;;;30.40;3.38;;;;;;;21.66;73.73;96923.50;2080900;28;20719;-69
2023/09/02 07:23:39;;;;;;;2.17;1.35;;;;;;;21.78;73.59;96929.63;2081166;28;20212;-69
2023/09/02 07:24:41;;;;;;;3.17;1.58;;;;;;;21.96;73.09;96929.84;2079384;28;20723;-69
2023/09/02 07:25:42;;;;;;;3.78;1.85;;;;;;;22.00;73.30;96926.78;2079183;28;20197;-69
2023/09/02 07:26:44;;;;;;;3.78;1.50;;;;;;;22.37;72.66;96932.53;2081612;28;20228;-69
2023/09/02 07:27:45;;;;;;;12.07;1.83;;;;;;;22.67;70.59;96927.13;2081189;28;20640;-69
2023/09/02 07:28:46;;;;;;;4.30;1.80;;;;;;;22.41;71.07;96923.31;2077735;28;20280;-69
2023/09/02 07:29:48;;;;;;;4.38;1.50;;;;;;;22.72;70.59;96925.91;2081812;28;20200;-69
2023/09/02 07:30:49;;;;;;;4.05;2.08;;;;;;;22.62;70.86;96921.38;2083070;28;20224;-70
2023/09/02 07:31:51;;;;;;;3.35;1.58;;;;;;;22.94;70.32;96930.13;2081420;28;20247;-69
2023/09/02 07:32:53;;;;;;;5.63;1.67;;;;;;;22.80;70.24;96926.91;2077226;28;20235;-69
2023/09/02 07:33:54;;;;;;;3.67;2.30;;;;;;;23.06;69.24;96925.50;2080064;28;20242;-70
2023/09/02 07:34:55;;;;;;;4.20;1.73;;;;;;;22.85;70.05;96925.63;2083180;28;20213;-70
2023/09/02 07:35:57;;;;;;;3.35;1.50;;;;;;;22.94;69.80;96932.78;2082544;28;20193;-69
2023/09/02 07:36:59;;;;;;;7.88;1.52;;;;;;;23.19;69.82;96934.09;2083581;28;20227;-68
2023/09/02 07:38:01;;;;;;;4.50;1.33;;;;;;;23.39;68.33;96940.25;2081175;28;20244;-68
2023/09/02 07:39:03;;;;;;;3.92;1.60;;;;;;;23.11;69.26;96934.75;2080137;28;20246;-68
2023/09/02 07:40:05;;;;;;;8.15;1.70;;;;;;;23.23;68.93;96930.16;2081073;28;20719;-68
2023/09/02 07:41:07;;;;;;;3.55;1.30;;;;;;;23.32;68.69;96939.13;2080930;28;20201;-68
2023/09/02 07:42:08;;;;;;;7.22;1.55;;;;;;;23.44;68.54;96935.34;2077787;28;20193;-69
2023/09/02 07:43:11;;;;;;;4.05;1.48;;;;;;;23.40;69.07;96935.75;2081736;28;20224;-68
2023/09/02 07:44:12;;;;;;;4.05;2.13;;;;;;;23.28;69.42;96930.56;2082508;28;20762;-68
2023/09/02 07:45:14;;;;;;;4.05;1.70;;;;;;;23.37;68.95;96926.22;2079790;28;20201;-68
2023/09/02 07:46:15;;;;;;;2.22;1.20;;;;;;;22.99;69.56;96938.53;2081693;28;20201;-68
2023/09/02 07:47:16;;;;;;;4.70;1.60;;;;;;;22.81;70.42;96933.06;2080244;28;20198;-69
2023/09/02 07:48:18;;;;;;;6.10;1.60;;;;;;;22.89;70.50;96927.88;2084512;28;20308;-68
2023/09/02 07:49:19;;;;;;;2.88;1.40;;;;;;;23.06;69.80;96937.00;2085074;28;20285;-68
2023/09/02 07:50:21;;;;;;;4.85;1.75;;;;;;;23.18;70.41;96940.38;2082618;28;20250;-68
2023/09/02 07:51:25;;;;;;;7.65;1.50;;;;;;;23.19;69.32;96944.75;2078040;28;20198;-68
2023/09/02 07:52:26;;;;;;;3.85;1.77;;;;;;;22.86;70.56;96935.31;2080645;28;20224;-68
2023/09/02 07:53:29;;;;;;;3.28;1.60;;;;;;;23.43;69.91;96941.63;2079253;28;20231;-68
2023/09/02 07:54:30;;;;;;;3.38;1.77;;;;;;;23.45;69.47;96947.69;2081068;28;20287;-68
2023/09/02 07:55:32;;;;;;;4.75;1.40;;;;;;;23.67;67.89;96937.69;2082130;28;20197;-68
2023/09/02 07:56:33;;;;;;;3.83;1.92;;;;;;;23.79;67.20;96946.34;2082493;28;20197;-69
2023/09/02 07:57:34;;;;;;;3.30;1.50;;;;;;;23.76;67.57;96935.97;2080457;28;20290;-68
2023/09/02 07:58:36;;;;;;;2.95;1.55;;;;;;;23.77;67.84;96943.81;2080034;28;20276;-69
2023/09/02 07:59:38;;;;;;;5.82;1.42;;;;;;;23.98;67.68;96940.16;2082338;28;20197;-69
2023/09/02 08:00:39;;;;;;;2.28;1.30;;;;;;;24.12;67.22;96938.84;2082510;28;20219;-68
2023/09/02 08:01:41;;;;;;;6.68;1.83;;;;;;;24.12;67.12;96941.50;2083551;28;20193;-69
2023/09/02 08:02:42;;;;;;;4.35;1.80;;;;;;;23.90;67.89;96940.00;2076811;28;20759;-69
2023/09/02 08:03:44;;;;;;;5.03;1.60;;;;;;;23.75;68.20;96947.63;2078058;28;20252;-68
2023/09/02 08:04:45;;;;;;;5.00;1.60;;;;;;;24.38;67.03;96941.66;2081367;28;20201;-68
2023/09/02 08:05:47;;;;;;;4.10;1.65;;;;;;;24.15;66.75;96943.88;2080317;28;20197;-68
2023/09/02 08:06:48;;;;;;;3.00;1.83;;;;;;;23.56;68.21;96945.84;2079678;28;20194;-68
2023/09/02 08:07:50;;;;;;;6.70;1.85;;;;;;;23.94;67.18;96946.75;2078235;28;20216;-68
2023/09/02 08:08:53;;;;;;;4.72;2.13;;;;;;;24.46;66.44;96944.44;2073757;28;20198;-68
2023/09/02 08:09:54;;;;;;;7.55;1.55;;;;;;;24.07;66.15;96949.94;2073112;28;20208;-67
2023/09/02 08:11:06;;;;;;;4.63;1.90;;;;;;;24.03;67.47;96945.06;2075550;28;20641;-67
2023/09/02 08:12:08;;;;;;;8.73;1.95;;;;;;;24.29;65.98;96954.06;2074614;28;20545;-67
2023/09/02 08:13:09;;;;;;;2.72;1.25;;;;;;;24.17;66.79;96947.22;2074402;28;20308;-68
2023/09/02 08:14:11;;;;;;;7.28;1.88;;;;;;;23.99;67.62;96949.00;2075286;28;20197;-66
2023/09/02 08:15:13;;;;;;;7.78;1.33;;;;;;;23.96;67.23;96952.81;2075617;28;20264;-66
2023/09/02 08:16:14;;;;;;;4.90;1.50;;;;;;;24.14;66.96;96955.53;2075582;28;20205;-67
2023/09/02 08:17:19;;;;;;;8.63;1.63;;;;;;;24.08;67.18;96946.28;2072377;28;20541;-66
2023/09/02 08:18:20;;;;;;;2.28;1.48;;;;;;;24.03;67.78;96950.38;2072164;28;20579;-66
2023/09/02 08:19:22;;;;;;;2.63;1.20;;;;;;;24.32;66.74;96946.75;2076517;28;20720;-67
2023/09/02 08:20:25;;;;;;;3.25;1.70;;;;;;;24.15;65.95;96946.56;2075808;28;20209;-66
2023/09/02 08:21:26;;;;;;;3.35;1.70;;;;;;;23.63;67.17;96947.78;2074442;28;20196;-66
2023/09/02 08:22:28;;;;;;;4.63;1.80;;;;;;;23.54;67.65;96951.31;2075860;28;20237;-66
2023/09/02 08:23:29;;;;;;;3.47;1.70;;;;;;;23.44;68.53;96948.66;2073935;28;20280;-67
2023/09/02 08:24:31;;;;;;;2.70;1.50;;;;;;;23.51;68.70;96951.59;2073324;28;20212;-67
2023/09/02 08:25:32;;;;;;;6.45;1.65;;;;;;;23.46;68.30;96944.03;2073120;28;20200;-67
2023/09/02 08:26:34;;;;;;;4.45;1.50;;;;;;;23.20;68.17;96946.44;2072096;28;20202;-66
2023/09/02 08:27:35;;;;;;;4.18;1.77;;;;;;;23.10;67.72;96948.22;2074571;28;20726;-66
2023/09/02 08:28:37;;;;;;;4.43;1.65;;;;;;;23.11;68.53;96944.59;2074172;28;20209;-66
2023/09/02 08:29:38;;;;;;;3.25;1.70;;;;;;;23.69;67.39;96951.69;2074762;28;20418;-67
2023/09/02 08:30:40;;;;;;;4.30;1.60;;;;;;;23.41;67.92;96953.41;2073955;28;20284;-67
2023/09/02 08:31:43;;;;;;;2.80;1.33;;;;;;;23.42;68.67;96949.78;2073591;28;20224;-66
2023/09/02 08:32:44;;;;;;;5.00;1.25;;;;;;;23.34;68.40;96950.50;2074048;28;20189;-63
2023/09/02 08:33:46;;;;;;;3.95;1.50;;;;;;;23.28;68.85;96951.88;2075346;28;20197;-64
2023/09/02 08:34:47;;;;;;;2.90;1.42;;;;;;;22.96;69.63;96949.47;2074877;28;20194;-64
2023/09/02 08:35:49;;;;;;;6.00;1.85;;;;;;;23.03;68.12;96955.91;2075035;28;20235;-64
2023/09/02 08:36:50;;;;;;;2.63;1.27;;;;;;;23.46;67.95;96946.69;2073917;28;20247;-64
2023/09/02 08:37:52;;;;;;;3.25;1.70;;;;;;;23.42;67.96;96949.78;2076300;28;21199;-64
2023/09/02 08:38:53;;;;;;;3.00;1.60;;;;;;;23.20;68.29;96945.56;2071870;28;20271;-64
2023/09/02 08:39:55;;;;;;;6.47;1.48;;;;;;;23.46;68.09;96948.50;2071825;28;20194;-64
2023/09/02 08:40:58;;;;;;;3.38;1.85;;;;;;;23.58;68.07;96952.72;2075032;28;20208;-64
2023/09/02 08:42:00;;;;;;;3.47;1.25;;;;;;;23.66;67.23;96952.00;2076624;28;20928;-64
2023/09/02 08:43:02;;;;;;;4.47;1.60;;;;;;;23.71;67.46;96956.91;2076450;28;20233;-64
2023/09/02 08:44:04;;;;;;;3.22;1.90;;;;;;;23.78;68.21;96961.50;2073769;28;20793;-64
2023/09/02 08:45:11;;;;;;;3.83;2.03;;;;;;;24.02;67.58;96948.69;2074571;28;20240;-64
2023/09/02 08:46:18;;;;;;;4.35;1.80;;;;;;;24.30;66.82;96962.91;2075600;28;20319;-64
2023/09/02 08:47:21;;;;;;;5.55;1.60;;;;;;;24.18;65.96;96956.91;2078468;28;20192;-65
2023/09/02 08:48:23;;;;;;;3.42;1.73;;;;;;;24.12;65.31;96958.38;2080036;28;20815;-64
2023/09/02 08:49:27;;;;;;;3.72;1.83;;;;;;;23.86;65.85;96958.13;2071716;28;20198;-64
2023/09/02 08:50:30;;;;;;;5.38;1.70;;;;;;;23.93;67.59;96956.59;2073998;28;20668;-64
2023/09/02 08:51:33;;;;;;;3.05;1.50;;;;;;;24.05;65.92;96953.72;2073467;28;20232;-64
2023/09/02 08:52:35;;;;;;;5.75;1.58;;;;;;;24.19;65.10;96952.41;2073140;28;20676;-64
2023/09/02 08:53:38;;;;;;;4.18;2.00;;;;;;;24.23;65.77;96962.66;2073748;28;20289;-64
2023/09/02 08:54:41;;;;;;;2.70;1.35;;;;;;;24.20;65.65;96962.97;2074069;28;20219;-64
2023/09/02 08:55:46;;;;;;;4.15;1.42;;;;;;;24.33;64.48;96964.44;2074417;28;20200;-64
2023/09/02 08:56:49;;;;;;;3.92;1.52;;;;;;;24.42;64.39;96964.41;2074792;28;20251;-64
2023/09/02 08:57:51;;;;;;;5.00;1.45;;;;;;;24.61;65.91;96966.13;2075739;28;20197;-64
2023/09/02 08:58:54;;;;;;;2.63;1.50;;;;;;;24.53;63.67;96960.69;2074470;28;20204;-64
2023/09/02 08:59:55;;;;;;;2.85;1.50;;;;;;;24.26;64.79;96958.84;2073759;28;20197;-65
2023/09/02 09:00:58;;;;;;;6.55;1.90;;;;;;;24.32;65.01;96963.59;2074157;28;20248;-65
2023/09/02 09:02:00;;;;;;;3.55;1.40;;;;;;;24.28;63.43;96964.91;2073815;28;20243;-65
2023/09/02 09:03:02;;;;;;;4.65;1.70;;;;;;;23.68;64.62;96959.84;2071108;28;20237;-65
2023/09/02 09:04:04;;;;;;;3.40;1.90;;;;;;;24.03;64.32;96966.38;2072552;28;20296;-64
2023/09/02 09:05:08;;;;;;;3.53;1.73;;;;;;;24.22;63.36;96960.13;2073896;28;20208;-66
2023/09/02 09:06:10;;;;;;;6.57;1.33;;;;;;;24.34;64.25;96966.13;2076001;28;20197;-67
2023/09/02 09:07:12;;;;;;;2.67;1.65;;;;;;;24.07;63.99;96963.25;2077201;28;20197;-67
2023/09/02 09:08:14;;;;;;;4.32;1.50;;;;;;;23.77;63.80;96961.66;2076344;28;20277;-69
2023/09/02 09:09:18;;;;;;;5.00;1.98;;;;;;;23.85;63.38;96961.75;2079078;28;20720;-70
2023/09/02 09:10:21;;;;;;;2.70;1.50;;;;;;;23.90;62.44;96970.16;2067868;28;20206;-70
2023/09/02 09:11:27;;;;;;;4.03;1.50;;;;;;;23.88;60.51;96961.47;2076463;28;20224;-70
2023/09/02 09:12:32;;;;;;;2.40;1.30;;;;;;;23.74;61.67;96964.59;2075226;28;20836;-70
2023/09/02 09:13:43;;;;;;;6.97;1.73;;;;;;;23.86;62.94;96973.25;2079854;28;20278;-68
2023/09/02 09:14:51;;;;;;;3.08;1.48;;;;;;;23.72;63.01;96972.75;2079833;28;20227;-68
2023/09/02 09:15:56;;;;;;;3.30;1.65;;;;;;;23.83;63.41;96984.22;2074479;28;20201;-68
2023/09/02 09:16:59;;;;;;;4.25;1.73;;;;;;;24.04;61.67;96976.91;2073617;28;20228;-68
2023/09/02 09:18:03;;;;;;;4.70;1.88;;;;;;;24.40;61.99;96969.03;2072876;28;20234;-68
2023/09/02 09:19:05;;;;;;;5.22;1.70;;;;;;;24.51;62.62;96984.03;2077606;28;20829;-68
2023/09/02 09:20:06;;;;;;;7.05;1.63;;;;;;;24.55;63.06;96979.22;2075948;28;20201;-68
2023/09/02 09:21:08;;;;;;;3.10;1.50;;;;;;;24.40;62.52;96978.88;2075036;28;20222;-68
2023/09/02 09:22:09;;;;;;;9.45;1.58;;;;;;;24.66;61.85;96979.06;2077087;28;20201;-68
2023/09/02 09:23:11;;;;;;;3.03;1.60;;;;;;;24.67;61.78;96982.56;2075057;28;20259;-69
2023/09/02 09:24:13;;;;;;;8.68;1.20;;;;;;;24.64;60.29;96977.50;2077645;28;20205;-68
2023/09/02 09:25:14;;;;;;;6.13;1.80;;;;;;;24.73;60.58;96985.47;2076497;28;20205;-68
2023/09/02 09:26:18;;;;;;;9.75;1.65;;;;;;;24.78;60.37;96979.69;2073737;28;20233;-68
2023/09/02 09:27:19;;;;;;;3.90;1.55;;;;;;;24.88;60.23;96980.47;2072317;28;20321;-68
2023/09/02 09:28:21;;;;;;;4.22;1.50;;;;;;;24.83;60.11;96979.25;2070882;28;20234;-67
2023/09/02 09:29:22;;;;;;;7.18;2.35;;;;;;;24.94;60.43;96987.06;2072247;28;20236;-68
2023/09/02 09:30:29;;;;;;;3.83;1.67;;;;;;;25.04;59.98;96985.16;2074802;28;20225;-68
2023/09/02 09:31:31;;;;;;;5.40;1.30;;;;;;;24.58;59.07;96985.13;2073538;28;20206;-68
2023/09/02 09:32:32;;;;;;;4.88;1.83;;;;;;;24.78;60.57;96985.88;2074443;28;20198;-68
2023/09/02 09:33:34;;;;;;;3.10;1.60;;;;;;;25.12;61.13;96980.91;2073872;28;20260;-68
2023/09/02 09:34:37;;;;;;;2.75;1.33;;;;;;;25.02;60.76;96980.97;2073289;28;20205;-68
2023/09/02 09:35:39;;;;;;;3.88;1.55;;;;;;;25.21;59.85;96974.63;2075147;28;20280;-68
2023/09/02 09:36:41;;;;;;;2.70;1.25;;;;;;;25.04;59.20;96973.59;2075943;28;20270;-68
2023/09/02 09:37:55;;;;;;;6.55;1.50;;;;;;;25.47;58.56;96973.88;2070600;28;20290;-68
2023/09/02 09:39:00;;;;;;;9.48;1.30;;;;;;;25.48;58.82;96972.88;2073147;28;20214;-68
2023/09/02 09:40:05;;;;;;;3.65;1.70;;;;;;;25.29;58.22;96971.19;2077072;28;20274;-68
2023/09/02 09:41:12;;;;;;;5.15;1.65;;;;;;;25.04;58.73;96970.94;2077303;28;20205;-68
2023/09/02 09:42:17;;;;;;;3.20;1.42;;;;;;;25.16;59.12;96975.06;2083814;28;20782;-68
2023/09/02 09:43:24;;;;;;;4.70;2.17;;;;;;;25.25;59.71;96978.66;2081453;28;20220;-68
2023/09/02 09:44:26;;;;;;;5.43;2.38;;;;;;;25.26;58.93;96977.69;2075064;28;20193;-68
2023/09/02 09:45:29;;;;;;;5.57;1.60;;;;;;;25.54;58.27;96974.94;2074932;28;20197;-68
2023/09/02 09:46:33;;;;;;;3.10;1.30;;;;;;;25.82;57.72;96974.81;2075652;28;20208;-68
2023/09/02 09:47:34;;;;;;;2.63;1.58;;;;;;;25.93;56.27;96971.88;2071844;28;20732;-68
2023/09/02 09:48:45;;;;;;;3.35;1.77;;;;;;;26.03;56.05;96969.94;2074001;28;20233;-68
2023/09/02 09:49:49;;;;;;;7.55;1.52;;;;;;;26.11;56.18;96971.84;2075380;28;20212;-68
2023/09/02 09:50:51;;;;;;;2.53;1.20;;;;;;;26.19;55.13;96971.06;2075278;28;20197;-68
2023/09/02 09:52:09;;;;;;;3.28;1.35;;;;;;;26.34;55.06;96966.78;2075744;28;20285;-68
2023/09/02 09:53:10;;;;;;;6.03;1.50;;;;;;;26.08;55.14;96972.19;2074589;28;20580;-68
2023/09/02 09:54:12;;;;;;;3.05;1.35;;;;;;;26.04;55.39;96979.66;2075563;28;20723;-68
2023/09/02 09:55:24;;;;;;;2.70;1.50;;;;;;;25.90;57.11;96975.72;2071591;28;20971;-68
2023/09/02 09:56:25;;;;;;;4.35;1.70;;;;;;;26.06;55.79;96976.84;2075431;28;20200;-68
2023/09/02 09:57:30;;;;;;;2.97;1.40;;;;;;;26.48;54.97;96977.91;2075260;28;20740;-68
2023/09/02 09:58:32;;;;;;;5.22;1.35;;;;;;;26.44;55.50;96976.53;2071657;28;20271;-68
2023/09/02 09:59:34;;;;;;;3.15;1.58;;;;;;;26.45;54.79;96976.38;2073183;28;20204;-68
2023/09/02 10:00:36;;;;;;;5.80;1.60;;;;;;;26.28;54.79;96978.13;2074392;28;20197;-68
2023/09/02 10:01:37;;;;;;;3.33;1.70;;;;;;;26.38;54.42;96978.00;2073365;28;20209;-68
2023/09/02 10:02:39;;;;;;;1.80;1.10;;;;;;;26.74;53.51;96969.84;2071991;28;20408;-68
2023/09/02 10:03:41;;;;;;;2.85;1.35;;;;;;;26.73;53.01;96978.88;2074845;28;20228;-68
2023/09/02 10:04:50;;;;;;;3.75;1.50;;;;;;;27.40;52.91;96969.13;2076024;28;20549;-68
2023/09/02 10:05:57;;;;;;;7.03;1.45;;;;;;;26.96;52.65;96971.06;2075202;28;20197;-68
2023/09/02 10:07:03;;;;;;;2.60;1.52;;;;;;;27.31;52.18;96976.28;2075157;28;20801;-68
2023/09/02 10:08:06;;;;;;;3.53;1.50;;;;;;;27.34;52.68;96979.47;2074634;28;20677;-68
2023/09/02 10:09:08;;;;;;;2.55;1.08;;;;;;;27.58;51.61;96979.69;2076044;28;20202;-68
2023/09/02 10:10:10;;;;;;;2.83;1.40;;;;;;;27.85;51.01;96981.19;2071588;28;20344;-68
2023/09/02 10:11:20;;;;;;;2.75;1.45;;;;;;;27.44;51.41;96983.88;2076196;28;20247;-68
2023/09/02 10:12:22;;;;;;;2.13;1.30;;;;;;;27.11;51.57;96971.25;2075308;28;20284;-68
2023/09/02 10:13:25;;;;;;;5.88;1.55;;;;;;;27.21;51.43;96974.63;2073284;28;20283;-68
2023/09/02 10:14:26;;;;;;;5.90;1.73;;;;;;;27.02;52.17;96975.75;2075872;28;20250;-69
2023/09/02 10:15:28;;;;;;;3.40;1.63;;;;;;;27.21;52.67;96969.25;2075045;28;20661;-68
2023/09/02 10:16:33;;;;;;;6.93;1.20;;;;;;;28.30;50.87;96976.25;2073737;28;21195;-68
2023/09/02 10:17:36;;;;;;;7.35;1.23;;;;;;;27.47;50.79;96973.66;2074944;28;20663;-68
2023/09/02 10:18:38;;;;;;;3.10;1.40;;;;;;;27.64;50.66;96977.19;2074829;28;20228;-68
2023/09/02 10:19:41;;;;;;;3.65;1.27;;;;;;;27.75;50.63;96970.63;2075381;28;20277;-68
2023/09/02 10:20:44;;;;;;;4.25;1.25;;;;;;;27.90;50.10;96972.63;2075525;28;20190;-69
2023/09/02 10:21:45;;;;;;;4.43;1.33;;;;;;;27.97;49.88;96974.47;2076125;28;20216;-68
2023/09/02 10:22:52;;;;;;;1.95;1.10;;;;;;;27.94;49.96;96977.47;2075456;28;20198;-68
2023/09/02 10:23:55;;;;;;;3.05;1.20;;;;;;;27.33;50.42;96976.97;2071310;28;20564;-69
2023/09/02 10:25:18;;;;;;;2.67;1.10;;;;;;;27.84;49.54;96974.97;2070359;28;20198;-68
2023/09/02 10:26:52;;;;;;;2.40;1.50;;;;;;;27.52;50.57;96975.84;2071626;28;20719;-68
2023/09/02 10:28:02;;;;;;;4.30;1.45;;;;;;;27.41;50.97;96979.69;2073111;28;20840;-68
2023/09/02 10:29:07;;;;;;;3.20;1.30;;;;;;;28.52;48.85;96980.06;2076206;28;20825;-69
2023/09/02 10:30:17;;;;;;;2.42;1.10;;;;;;;29.03;47.22;96987.72;2075505;28;20292;-69
2023/09/02 10:31:21;;;;;;;2.55;1.40;;;;;;;28.15;48.09;96979.66;2073118;28;20778;-68
2023/09/02 10:32:28;;;;;;;2.15;1.00;;;;;;;28.08;48.51;96984.03;2073338;28;20212;-68
2023/09/02 10:33:45;;;;;;;3.60;1.27;;;;;;;28.74;47.84;96977.63;2075977;28;20227;-68
2023/09/02 10:35:04;;;;;;;2.05;1.00;;;;;;;29.18;47.59;96979.75;2076455;28;20284;-69
2023/09/02 10:36:07;;;;;;;1.80;0.90;;;;;;;30.11;45.87;96985.91;2074173;28;20204;-69
2023/09/02 10:37:14;;;;;;;2.83;1.17;;;;;;;30.18;45.58;96979.78;2074431;28;20554;-68
2023/09/02 10:38:20;;;;;;;3.75;1.30;;;;;;;29.70;45.47;96983.56;2072414;28;20332;-68
2023/09/02 10:39:30;;;;;;;3.50;1.20;;;;;;;30.64;46.09;96986.84;2074937;28;20821;-68
2023/09/02 10:40:40;;;;;;;3.50;1.13;;;;;;;30.70;45.02;96981.56;2075574;28;20837;-67
2023/09/02 10:41:43;;;;;;;3.20;1.20;;;;;;;31.21;45.62;96977.16;2075236;28;20427;-69
2023/09/02 10:42:49;;;;;;;1.93;1.33;;;;;;;31.47;43.23;96973.09;2073622;28;20415;-68
2023/09/02 10:43:53;;;;;;;3.20;1.30;;;;;;;30.80;44.04;96973.16;2074853;28;20419;-68
2023/09/02 10:44:55;;;;;;;1.93;1.17;;;;;;;30.56;44.22;96977.00;2073724;28;20426;-69
2023/09/02 10:45:57;;;;;;;2.13;1.17;;;;;;;30.12;45.56;96971.41;2078733;28;20430;-69
2023/09/02 10:46:59;;;;;;;5.70;1.90;;;;;;;30.24;45.78;96976.34;2079392;28;20534;-68
2023/09/02 10:48:00;;;;;;;2.27;1.27;;;;;;;29.88;46.92;96979.72;2075275;28;20492;-69
2023/09/02 10:49:02;;;;;;;4.40;1.20;;;;;;;31.20;45.50;96967.44;2071913;28;20431;-69
2023/09/02 10:50:04;;;;;;;1.90;1.10;;;;;;;32.39;43.75;96965.91;2074607;28;20464;-69
2023/09/02 10:51:08;;;;;;;2.80;1.53;;;;;;;32.35;43.06;96965.50;2075618;28;21051;-69
2023/09/02 10:52:10;;;;;;;2.20;1.30;;;;;;;30.88;44.06;96964.13;2074052;28;20430;-69
2023/09/02 10:53:15;;;;;;;2.13;1.17;;;;;;;29.96;46.09;96972.41;2074939;28;20990;-69
2023/09/02 10:54:16;;;;;;;1.80;1.10;;;;;;;30.93;44.81;96967.94;2079239;28;20434;-69
2023/09/02 10:55:18;;;;;;;4.70;1.70;;;;;;;31.58;44.49;96965.28;2080497;28;21173;-69
2023/09/02 10:56:26;;;;;;;2.67;1.50;;;;;;;31.24;43.33;96969.53;2075894;28;20453;-69
2023/09/02 10:57:32;;;;;;;2.40;1.70;;;;;;;31.77;42.88;96972.94;2075417;28;20462;-69
2023/09/02 10:58:47;;;;;;;2.67;1.40;;;;;;;31.38;43.75;96966.97;2074773;28;20456;-69
2023/09/02 10:59:48;;;;;;;4.00;1.57;;;;;;;31.23;44.16;96967.03;2076004;28;20462;-69
2023/09/02 11:00:52;;;;;;;3.20;1.50;;;;;;;31.37;44.12;96966.13;2075822;28;20430;-68
2023/09/02 11:01:54;;;;;;;3.30;1.37;;;;;;;31.38;43.63;96970.50;2075651;28;20427;-69
2023/09/02 11:02:59;;;;;;;8.10;2.10;;;;;;;31.31;43.65;96969.59;2074852;28;20446;-69
2023/09/02 11:04:01;;;;;;;3.03;1.47;;;;;;;31.15;43.87;96972.53;2075106;28;20977;-69
2023/09/02 11:05:03;;;;;;;1.87;1.10;;;;;;;31.47;44.25;96967.69;2071395;28;20431;-69
2023/09/02 11:06:06;;;;;;;2.37;1.20;;;;;;;31.32;44.56;96951.56;2074832;28;20968;-68
2023/09/02 11:07:19;;;;;;;5.03;1.80;;;;;;;30.92;44.75;96960.88;2074898;28;20473;-68
2023/09/02 11:08:50;;;;;;;2.80;1.57;;;;;;;31.22;44.24;96962.66;2072754;28;20538;-68
2023/09/02 11:09:54;;;;;;;4.20;1.70;;;;;;;31.54;44.20;96957.78;2078548;28;20418;-68
2023/09/02 11:10:55;;;;;;;2.93;1.20;;;;;;;31.64;43.93;96968.28;2078767;28;20521;-69
2023/09/02 11:12:09;;;;;;;4.70;1.30;;;;;;;31.23;43.83;96961.66;2077533;28;21106;-68
2023/09/02 11:13:11;;;;;;;2.20;1.40;;;;;;;31.11;44.77;96964.03;2076249;28;20464;-70
2023/09/02 11:14:15;;;;;;;3.13;1.87;;;;;;;31.78;43.24;96959.25;2076166;28;20442;-69
2023/09/02 11:15:18;;;;;;;2.60;1.23;;;;;;;31.72;42.95;96963.56;2075409;28;20837;-69
2023/09/02 11:16:19;;;;;;;2.53;1.30;;;;;;;30.95;44.26;96957.78;2074813;28;20426;-68
2023/09/02 11:17:30;;;;;;;4.40;1.40;;;;;;;31.68;42.96;96966.84;2077001;28;20414;-69
2023/09/02 11:18:39;;;;;;;4.13;1.23;;;;;;;31.94;42.25;96960.84;2076375;28;20438;-68
2023/09/02 11:19:58;;;;;;;2.10;1.37;;;;;;;32.33;42.39;96970.25;2077125;28;20470;-68
2023/09/02 11:21:00;;;;;;;3.90;1.50;;;;;;;32.12;43.75;96960.31;2074870;28;20507;-69
2023/09/02 11:22:01;;;;;;;4.53;1.60;;;;;;;31.63;43.41;96955.81;2075282;28;20488;-69
2023/09/02 11:23:04;;;;;;;2.63;1.40;;;;;;;31.69;44.42;96957.72;2071109;28;20503;-68
2023/09/02 11:24:47;;;;;;;2.60;1.50;;;;;;;32.51;43.40;96960.78;2072605;28;20419;-68
2023/09/02 11:26:00;;;;;;;5.10;1.33;;;;;;;33.57;42.84;96956.75;2074641;28;21198;-69
2023/09/02 11:27:02;;;;;;;2.17;1.00;;;;;;;34.13;42.28;96960.06;2075823;28;20430;-71
2023/09/02 11:28:06;;;;;;;1.60;1.00;;;;;;;33.72;42.71;96956.56;2074896;28;20525;-70
2023/09/02 11:29:27;;;;;;;3.13;1.20;;;;;;;34.06;40.93;96956.56;2075672;28;20462;-69
2023/09/02 11:30:30;;;;;;;4.93;1.20;;;;;;;34.18;40.64;96957.56;2075377;28;20488;-70
2023/09/02 11:31:31;;;;;;;2.57;1.30;;;;;;;34.23;41.82;96957.75;2082676;28;21097;-70
2023/09/02 11:32:43;;;;;;;3.33;1.50;;;;;;;33.19;43.84;96951.88;2081944;28;20985;-68
2023/09/02 11:33:46;;;;;;;2.63;1.60;;;;;;;32.42;44.85;96951.16;2075732;28;20415;-67
2023/09/02 11:34:49;;;;;;;2.20;1.20;;;;;;;33.20;43.79;96949.00;2074530;28;20484;-69
2023/09/02 11:35:52;;;;;;;2.07;1.30;;;;;;;34.01;43.05;96963.44;2074331;28;20420;-68
2023/09/02 11:36:54;;;;;;;3.10;1.50;;;;;;;33.89;43.35;96959.72;2076151;28;20427;-68
2023/09/02 11:37:56;;;;;;;3.90;1.33;;;;;;;33.88;43.08;96958.03;2075036;28;20482;-67
2023/09/02 11:38:58;;;;;;;3.00;1.80;;;;;;;33.73;42.69;96955.50;2076789;28;20514;-67
2023/09/02 11:40:15;;;;;;;2.63;1.40;;;;;;;32.68;44.71;96955.88;2075055;28;20461;-68
2023/09/02 11:41:23;;;;;;;5.13;1.10;;;;;;;32.84;45.46;96962.84;2071603;28;20438;-68
2023/09/02 11:42:30;;;;;;;1.93;1.40;;;;;;;32.35;45.70;96959.25;2072762;28;20529;-69
2023/09/02 11:43:32;;;;;;;5.63;1.30;;;;;;;32.54;44.89;96958.53;2074769;28;20458;-69
2023/09/02 11:44:34;;;;;;;2.50;1.20;;;;;;;32.83;44.36;96961.97;2076199;28;20458;-69
2023/09/02 11:45:38;;;;;;;2.90;1.43;;;;;;;33.64;43.34;96963.00;2076370;28;20438;-69
2023/09/02 11:46:40;;;;;;;2.67;1.20;;;;;;;33.70;43.32;96964.06;2075655;28;20474;-69
2023/09/02 11:47:42;;;;;;;3.67;1.20;;;;;;;34.15;42.73;96969.66;2075247;28;20940;-69
2023/09/02 11:48:43;;;;;;;4.50;1.30;;;;;;;33.54;42.45;96959.88;2076035;28;21098;-69
2023/09/02 11:49:45;;;;;;;2.20;1.40;;;;;;;33.31;43.53;96966.50;2076644;28;21132;-69
2023/09/02 11:50:46;;;;;;;3.90;1.63;;;;;;;33.43;44.35;96968.63;2073390;28;20457;-69
2023/09/02 11:51:48;;;;;;;4.80;1.10;;;;;;;32.95;45.65;96959.53;2076600;28;20514;-70
2023/09/02 11:52:53;;;;;;;2.70;1.17;;;;;;;33.55;44.71;96966.97;2065370;28;21155;-69
2023/09/02 11:53:55;;;;;;;4.77;1.33;;;;;;;34.62;43.13;96972.28;2074113;28;20525;-69
2023/09/02 11:54:56;;;;;;;6.00;1.53;;;;;;;34.04;43.11;96978.44;2075547;28;20561;-69
2023/09/02 11:55:58;;;;;;;2.60;1.37;;;;;;;33.42;43.60;96969.66;2077166;28;20493;-69
2023/09/02 11:57:02;;;;;;;3.53;1.23;;;;;;;33.79;43.43;96972.78;2077342;28;20500;-69